createdAt,value
2022-09-14T00:03:08.928Z,97414.16
2022-09-14T00:08:12.101Z,97462.50
2022-09-14T00:13:17.478Z,97451.19
2022-09-14T00:18:21.501Z,97451.31
2022-09-14T00:23:24.178Z,97475.88
2022-09-14T00:28:26.811Z,97458.97
2022-09-14T00:33:29.641Z,97290.47
2022-09-14T00:38:33.313Z,97443.41
2022-09-14T00:43:52.110Z,97314.69
2022-09-14T00:48:55.957Z,97473.22
2022-09-14T00:53:58.938Z,97340.34
2022-09-14T00:59:07.666Z,97422.66
2022-09-14T01:04:10.399Z,97422.72
2022-09-14T01:09:23.481Z,97393.22
2022-09-14T01:14:52.747Z,97366.63
2022-09-14T01:20:29.370Z,97447.34
2022-09-14T01:26:07.260Z,97454.19
2022-09-14T01:31:33.244Z,97437.41
2022-09-14T01:36:39.507Z,97331.34
2022-09-14T01:41:43.313Z,97367.09
2022-09-14T01:46:51.137Z,97388.63
2022-09-14T01:52:04.914Z,97387.56
2022-09-14T01:57:37.513Z,97221.25
2022-09-14T02:02:55.342Z,97377.25
2022-09-14T02:07:58.682Z,97250.72
2022-09-14T02:13:01.489Z,97239.53
2022-09-14T02:18:05.619Z,97333.81
2022-09-14T02:23:09.447Z,97394.88
2022-09-14T02:28:12.118Z,97317.50
2022-09-14T02:33:22.197Z,97316.47
2022-09-14T02:38:36.781Z,97286.66
2022-09-14T02:43:47.500Z,97370.81
2022-09-14T02:48:58.455Z,97381.34
2022-09-14T02:54:29.660Z,97366.94
2022-09-14T02:59:32.634Z,97342.13
2022-09-14T03:04:37.339Z,97294.47
2022-09-14T03:09:40.972Z,97343.03
2022-09-14T03:14:43.603Z,97160.94
2022-09-14T03:19:46.222Z,97324.50
2022-09-14T03:24:49.270Z,97342.00
2022-09-14T03:29:51.911Z,97232.81
2022-09-14T03:34:55.046Z,97328.63
2022-09-14T03:39:57.802Z,97277.00
2022-09-14T03:45:01.173Z,97271.66
2022-09-14T03:50:04.165Z,97324.97
2022-09-14T03:55:10.149Z,97295.75
2022-09-14T04:00:14.150Z,97269.75
2022-09-14T04:05:21.576Z,97311.81
2022-09-14T04:10:24.525Z,97244.81
2022-09-14T04:15:28.388Z,97306.38
2022-09-14T04:20:31.165Z,97293.34
2022-09-14T04:25:33.902Z,97249.00
2022-09-14T04:30:36.533Z,97297.59
2022-09-14T04:35:40.281Z,97273.72
2022-09-14T04:40:43.816Z,97231.22
2022-09-14T04:45:46.714Z,97246.81
2022-09-14T04:50:50.167Z,97302.38
2022-09-14T04:55:52.845Z,97204.00
2022-09-14T05:01:01.708Z,97282.50
2022-09-14T05:06:06.329Z,97154.31
2022-09-14T05:11:10.318Z,97293.84
2022-09-14T05:16:17.631Z,97293.34
2022-09-14T05:21:22.514Z,97187.91
2022-09-14T05:26:26.916Z,97305.19
2022-09-14T05:31:30.559Z,97312.34
2022-09-14T05:36:34.044Z,97207.63
2022-09-14T05:41:36.874Z,97167.91
2022-09-14T05:46:39.655Z,97252.78
2022-09-14T05:51:42.401Z,97236.72
2022-09-14T05:56:45.168Z,97280.06
2022-09-14T06:01:47.908Z,97252.88
2022-09-14T06:07:07.959Z,97161.34
2022-09-14T06:12:15.435Z,97286.91
2022-09-14T06:17:18.026Z,97306.63
2022-09-14T06:22:20.782Z,97319.91
2022-09-14T06:27:23.516Z,97209.28
2022-09-14T06:32:28.137Z,97212.03
2022-09-14T06:37:30.870Z,97246.47
2022-09-14T06:42:33.679Z,97211.47
2022-09-14T06:47:36.450Z,97206.59
2022-09-14T06:52:40.397Z,97294.63
2022-09-14T06:57:43.297Z,97205.59
2022-09-14T07:02:46.104Z,97249.31
2022-09-14T07:07:52.343Z,97148.88
2022-09-14T07:12:55.832Z,97147.16
2022-09-14T07:17:59.742Z,97241.97
2022-09-14T07:23:02.455Z,97081.81
2022-09-14T07:28:05.324Z,97254.47
2022-09-14T07:33:08.921Z,97191.34
2022-09-14T07:38:11.536Z,97232.94
2022-09-14T07:43:14.809Z,97172.75
2022-09-14T07:48:17.477Z,97204.41
2022-09-14T07:53:21.609Z,97124.88
2022-09-14T07:58:24.466Z,97189.63
2022-09-14T08:03:27.783Z,97279.53
2022-09-14T08:08:32.247Z,97276.81
2022-09-14T08:13:36.235Z,97222.91
2022-09-14T08:18:39.214Z,97330.06
2022-09-14T08:23:44.922Z,97287.88
2022-09-14T08:28:49.508Z,97296.22
2022-09-14T08:33:55.773Z,97317.16
2022-09-14T08:38:58.988Z,97311.66
2022-09-14T08:44:14.801Z,97313.91
2022-09-14T08:49:47.786Z,97345.50
2022-09-14T08:54:55.614Z,97354.75
2022-09-14T09:00:14.167Z,97369.84
2022-09-14T09:05:40.020Z,97261.34
2022-09-14T09:10:43.363Z,97237.56
2022-09-14T09:15:51.372Z,97324.13
2022-09-14T09:21:01.287Z,97352.69
2022-09-14T09:26:23.452Z,97382.97
2022-09-14T09:31:34.701Z,97390.03
2022-09-14T09:36:41.485Z,97346.00
2022-09-14T09:41:45.714Z,97357.53
2022-09-14T09:46:54.004Z,97212.28
2022-09-14T09:51:57.316Z,97297.19
2022-09-14T09:57:03.136Z,97274.00
2022-09-14T10:02:33.890Z,97324.69
2022-09-14T10:07:54.762Z,97303.69
2022-09-14T10:12:57.835Z,97235.41
2022-09-14T10:18:17.760Z,97244.06
2022-09-14T10:23:20.413Z,97302.78
2022-09-14T10:28:34.882Z,97295.53
2022-09-14T10:33:37.843Z,97309.72
2022-09-14T10:44:28.874Z,97282.53
2022-09-14T10:49:51.978Z,97308.13
2022-09-14T10:55:08.961Z,97290.47
2022-09-14T11:00:22.753Z,97316.91
2022-09-14T11:05:37.089Z,97311.50
2022-09-14T11:11:11.662Z,97307.06
2022-09-14T11:16:26.484Z,97272.31
2022-09-14T11:21:49.493Z,97303.41
2022-09-14T11:27:23.663Z,97304.47
2022-09-14T11:32:56.785Z,97291.88
2022-09-14T11:38:02.777Z,97286.56
2022-09-14T11:43:15.547Z,97299.50
2022-09-14T11:48:43.180Z,97169.53
2022-09-14T11:53:48.133Z,97242.91
2022-09-14T11:58:51.715Z,97259.13
2022-09-14T12:04:05.550Z,97270.75
2022-09-14T12:09:14.853Z,97253.22
2022-09-14T12:14:31.067Z,97234.78
2022-09-14T12:19:47.372Z,97192.75
2022-09-14T12:25:16.133Z,97233.81
2022-09-14T12:30:48.986Z,97183.41
2022-09-14T12:35:52.479Z,97197.38
2022-09-14T12:41:02.628Z,97214.94
2022-09-14T12:46:10.117Z,97168.78
2022-09-14T12:51:22.402Z,97182.38
2022-09-14T12:56:28.712Z,97193.84
2022-09-14T13:02:00.055Z,97141.44
2022-09-14T13:07:07.288Z,97183.00
2022-09-14T13:12:13.321Z,97096.97
2022-09-14T13:17:17.840Z,97165.84
2022-09-14T13:22:26.936Z,97201.66
2022-09-14T13:27:33.735Z,97222.88
2022-09-14T13:32:43.467Z,97221.84
2022-09-14T13:37:48.427Z,97152.41
2022-09-14T13:42:52.463Z,97046.09
2022-09-14T13:47:56.843Z,97186.13
2022-09-14T13:53:02.886Z,97207.06
2022-09-14T13:58:10.334Z,97187.78
2022-09-14T14:03:29.097Z,97161.13
2022-09-14T14:08:36.551Z,97156.88
2022-09-14T14:13:40.737Z,97167.66
2022-09-14T14:18:50.419Z,97200.09
2022-09-14T14:24:15.772Z,97205.38
2022-09-14T14:29:20.166Z,97179.34
2022-09-14T14:34:29.126Z,97042.13
2022-09-14T14:39:33.379Z,97029.94
2022-09-14T14:44:38.802Z,97112.44
2022-09-14T14:49:42.334Z,96999.47
2022-09-14T14:54:45.913Z,97165.53
2022-09-14T14:59:53.747Z,97087.66
2022-09-14T15:04:58.576Z,97054.34
2022-09-14T15:10:02.172Z,97104.69
2022-09-14T15:15:24.952Z,97180.13
2022-09-14T15:20:29.154Z,97159.97
2022-09-14T15:25:40.501Z,97172.81
2022-09-14T15:30:44.384Z,97084.81
2022-09-14T15:35:54.869Z,97172.47
2022-09-14T15:40:58.615Z,96995.81
2022-09-14T15:46:04.845Z,97175.72
2022-09-14T15:51:14.781Z,97163.34
2022-09-14T15:56:22.545Z,97131.84
2022-09-14T16:01:30.222Z,97156.41
2022-09-14T16:06:34.530Z,97140.69
2022-09-14T16:11:39.819Z,97158.69
2022-09-14T16:16:43.464Z,97120.88
2022-09-14T16:21:53.728Z,97137.00
2022-09-14T16:26:58.778Z,97107.50
2022-09-14T16:32:02.373Z,96946.38
2022-09-14T16:37:05.798Z,97142.41
2022-09-14T16:42:09.272Z,97095.00
2022-09-14T16:47:13.450Z,97144.09
2022-09-14T16:52:18.054Z,97019.13
2022-09-14T16:57:22.103Z,97109.53
2022-09-14T17:02:25.932Z,97163.72
2022-09-14T17:07:29.439Z,97089.53
2022-09-14T17:12:32.932Z,97168.09
2022-09-14T17:17:36.582Z,97180.66
2022-09-14T17:22:40.647Z,97176.56
2022-09-14T17:27:44.409Z,97105.09
2022-09-14T17:32:49.825Z,97166.59
2022-09-14T17:37:53.626Z,97141.19
2022-09-14T17:42:57.503Z,97159.63
2022-09-14T17:48:01.070Z,97156.25
2022-09-14T17:53:04.528Z,96984.03
2022-09-14T17:58:08.335Z,97130.50
2022-09-14T18:03:16.298Z,97029.84
2022-09-14T18:08:20.899Z,97040.53
2022-09-14T18:13:25.053Z,97091.16
2022-09-14T18:18:28.593Z,96992.13
2022-09-14T18:23:32.359Z,97009.66
2022-09-14T18:28:37.319Z,96970.75
2022-09-14T18:33:41.053Z,97045.41
2022-09-14T18:38:44.881Z,97121.06
2022-09-14T18:43:56.228Z,97119.16
2022-09-14T18:49:24.510Z,97118.78
2022-09-14T18:54:29.121Z,97096.41
2022-09-14T18:59:38.024Z,97118.91
2022-09-14T19:04:41.445Z,96938.19
2022-09-14T19:09:44.891Z,96926.75
2022-09-14T19:14:48.333Z,96937.00
2022-09-14T19:19:51.992Z,97006.34
2022-09-14T19:25:10.275Z,96941.06
2022-09-14T19:30:14.544Z,96982.97
2022-09-14T19:35:28.716Z,97066.72
2022-09-14T19:40:32.426Z,97034.91
2022-09-14T19:45:36.463Z,97062.88
2022-09-14T19:50:39.879Z,97084.28
2022-09-14T19:55:43.595Z,97053.09
2022-09-14T20:00:47.174Z,96931.63
2022-09-14T20:06:20.313Z,96885.88
2022-09-14T20:11:26.360Z,96917.22
2022-09-14T20:16:34.551Z,97070.38
2022-09-14T20:21:38.428Z,97100.38
2022-09-14T20:26:42.608Z,97101.91
2022-09-14T20:31:45.830Z,97089.59
2022-09-14T20:36:50.265Z,97039.44
2022-09-14T20:41:53.156Z,96984.59
2022-09-14T20:46:55.923Z,96995.41
2022-09-14T20:52:01.415Z,97079.91
2022-09-14T20:57:04.702Z,96910.81
2022-09-14T21:02:07.620Z,97026.44
2022-09-14T21:07:11.820Z,97101.72
2022-09-14T21:12:15.948Z,97087.00
2022-09-14T21:17:19.320Z,96922.28
2022-09-14T21:22:22.290Z,96982.84
2022-09-14T21:27:25.289Z,97044.50
2022-09-14T21:32:27.970Z,97064.66
2022-09-14T21:37:30.883Z,97023.19
2022-09-14T21:42:33.534Z,96995.44
2022-09-14T21:47:39.974Z,96956.81
2022-09-14T21:52:45.605Z,97002.16
2022-09-14T21:57:49.055Z,96953.47
2022-09-14T22:02:51.818Z,97044.47
2022-09-14T22:07:54.589Z,96871.69
2022-09-14T22:12:57.500Z,96999.47
2022-09-14T22:18:02.283Z,97029.59
2022-09-14T22:23:05.335Z,97040.97
2022-09-14T22:28:08.392Z,97001.53
2022-09-14T22:33:11.109Z,96885.06
2022-09-14T22:38:13.961Z,97017.25
2022-09-14T22:43:16.603Z,97062.09
2022-09-14T22:48:19.408Z,96964.78
2022-09-14T22:53:24.256Z,97054.34
2022-09-14T22:58:28.448Z,97053.09
2022-09-14T23:03:31.127Z,96998.28
2022-09-14T23:08:36.220Z,97062.25
2022-09-14T23:13:41.532Z,97052.41
2022-09-14T23:18:45.318Z,96997.94
2022-09-14T23:23:55.704Z,97020.94
2022-09-14T23:29:02.163Z,97065.44
2022-09-14T23:34:10.806Z,96979.31
2022-09-14T23:39:13.734Z,97022.13
2022-09-14T23:44:16.522Z,97030.25
2022-09-14T23:49:19.541Z,97045.47
2022-09-14T23:54:22.278Z,97013.16
2022-09-14T23:59:25.132Z,97036.00
